PWSweather.com
Personal Weather Stations
Station Observations
CLIFTONPWS
PenrithGB CA102ES

PenrithGB CA102ES

Lat: 54.630933, Lon: -2.718524

Elevation: 521

Station Type: Maplin N96GY

http://www.cliftonpws.co.uk/weather

Latest ConditionsUpdated 9:15:00 PM GMT Thursday, Sep 21, 2017
Currently Today's Max Today's Min Today's Average
Temperature 48.6°F9.2°C 60.1°F15.6°C 48.6°F9.2°C 57.3°F14.1°C
Dew Point 46.9°F8.3°C 58.9°F14.9°C 46.6°F8.1°C 55.6°F13.1°C
Winds 0.4 mph SSE0.6 kmh SSE 8.3 mph SSE13.4 kmh SSE - 4.2 mph 6.8 kmh
Wind Gusts 3.1 mph5.0 kmh 19.0 mph30.6 kmh - -
Humidity 94% 99% 81% 94%
Pressure 29.93 in1013.5 mb 29.93 in1013.5 mb 29.68 in1005.1 mb -
Precipitation - 0.25 in6.4 mm - -
Hour Temp Dew Point Humidity Winds Wind Gusts Pressure Precip Precip Rate Daily Precip Total
09:15 PM 48.6°F9.2°C 46.9°F8.3°C 94% 0.4 mph SSE0.6 kmh SSE 3.1 mph5.0 kmh 29.93 in1013.5 mb 0.00 in0.0 mm 0.00 in0.0 mm 0.25 in6.4 mm
09:00 PM 48.6°F9.2°C 46.6°F8.1°C 93% Calm Calm 1.6 mph2.6 kmh 29.93 in1013.5 mb 0.00 in0.0 mm 0.00 in0.0 mm 0.25 in6.4 mm
08:45 PM 49.3°F9.6°C 47.1°F8.4°C 92% 0.4 mph NE0.6 kmh NE 3.1 mph5.0 kmh 29.93 in1013.5 mb 0.00 in0.0 mm 0.00 in0.0 mm 0.25 in6.4 mm
08:30 PM 50.5°F10.3°C 47.4°F8.6°C 89% 1.3 mph NE2.1 kmh NE 4.5 mph7.2 kmh 29.93 in1013.5 mb 0.00 in0.0 mm 0.00 in0.0 mm 0.25 in6.4 mm
08:15 PM 51.8°F11.0°C 48.7°F9.3°C 89% 1.2 mph S1.9 kmh S 5.4 mph8.7 kmh 29.93 in1013.5 mb 0.00 in0.0 mm 0.00 in0.0 mm 0.25 in6.4 mm
08:00 PM 52.2°F11.2°C 49.0°F9.4°C 89% 2.8 mph S4.5 kmh S 11.4 mph18.3 kmh 29.93 in1013.5 mb 0.00 in0.0 mm 0.00 in0.0 mm 0.25 in6.4 mm
07:45 PM 52.2°F11.2°C 49.0°F9.4°C 89% 2.5 mph S4.0 kmh S 6.0 mph9.7 kmh 29.92 in1013.2 mb 0.00 in0.0 mm 0.00 in0.0 mm 0.25 in6.4 mm
07:30 PM 52.2°F11.2°C 49.0°F9.4°C 89% 1.9 mph SSW3.1 kmh SSW 7.6 mph12.2 kmh 29.91 in1012.9 mb 0.00 in0.0 mm 0.00 in0.0 mm 0.25 in6.4 mm
07:15 PM 52.5°F11.4°C 49.4°F9.7°C 89% 2.0 mph SSW3.2 kmh SSW 7.6 mph12.2 kmh 29.91 in1012.9 mb 0.00 in0.0 mm 0.00 in0.0 mm 0.25 in6.4 mm
07:00 PM 52.9°F11.6°C 49.7°F9.8°C 89% 1.4 mph SSW2.3 kmh SSW 6.0 mph9.7 kmh 29.91 in1012.9 mb 0.00 in0.0 mm 0.00 in0.0 mm 0.25 in6.4 mm
06:45 PM 53.4°F11.9°C 50.3°F10.2°C 89% 2.1 mph S3.4 kmh S 6.0 mph9.7 kmh 29.90 in1012.5 mb 0.00 in0.0 mm 0.00 in0.0 mm 0.25 in6.4 mm
06:30 PM 54.0°F12.2°C 50.8°F10.4°C 89% 3.0 mph SW4.8 kmh SW 7.6 mph12.2 kmh 29.89 in1012.2 mb 0.00 in0.0 mm 0.00 in0.0 mm 0.25 in6.4 mm
06:15 PM 54.5°F12.5°C 51.3°F10.7°C 89% 3.2 mph S5.1 kmh S 8.3 mph13.4 kmh 29.89 in1012.2 mb 0.00 in0.0 mm 0.00 in0.0 mm 0.25 in6.4 mm
06:00 PM 55.4°F13.0°C 51.6°F10.9°C 87% 4.8 mph S7.7 kmh S 9.8 mph15.8 kmh 29.89 in1012.2 mb 0.00 in0.0 mm 0.00 in0.0 mm 0.25 in6.4 mm
05:45 PM 56.3°F13.5°C 51.8°F11.0°C 85% 3.8 mph SSW6.1 kmh SSW 9.2 mph14.8 kmh 29.88 in1011.9 mb 0.00 in0.0 mm 0.00 in0.0 mm 0.25 in6.4 mm
05:30 PM 57.9°F14.4°C 52.8°F11.6°C 83% 3.7 mph SSW6.0 kmh SSW 10.7 mph17.2 kmh 29.87 in1011.5 mb 0.00 in0.0 mm 0.00 in0.0 mm 0.25 in6.4 mm
05:15 PM 59.4°F15.2°C 53.5°F11.9°C 81% 5.0 mph SSW8.0 kmh SSW 10.7 mph17.2 kmh 29.87 in1011.5 mb 0.00 in0.0 mm 0.00 in0.0 mm 0.25 in6.4 mm
05:00 PM 59.9°F15.5°C 54.4°F12.4°C 82% 4.0 mph SW6.4 kmh SW 10.7 mph17.2 kmh 29.86 in1011.2 mb 0.00 in0.0 mm 0.00 in0.0 mm 0.25 in6.4 mm
04:45 PM 59.7°F15.4°C 54.9°F12.7°C 84% 3.3 mph SSW5.3 kmh SSW 7.6 mph12.2 kmh 29.86 in1011.2 mb 0.00 in0.0 mm 0.00 in0.0 mm 0.25 in6.4 mm
04:30 PM 58.8°F14.9°C 53.7°F12.1°C 83% 3.8 mph SW6.1 kmh SW 8.3 mph13.4 kmh 29.85 in1010.8 mb 0.00 in0.0 mm 0.00 in0.0 mm 0.25 in6.4 mm
04:15 PM 59.4°F15.2°C 54.2°F12.3°C 83% 5.5 mph SSW8.9 kmh SSW 11.4 mph18.3 kmh 29.85 in1010.8 mb 0.00 in0.0 mm 0.00 in0.0 mm 0.25 in6.4 mm
04:00 PM 59.4°F15.2°C 54.8°F12.7°C 85% 3.1 mph WSW5.0 kmh WSW 10.7 mph17.2 kmh 29.84 in1010.5 mb 0.00 in0.0 mm 0.00 in0.0 mm 0.25 in6.4 mm
03:45 PM 59.4°F15.2°C 55.2°F12.9°C 86% 2.4 mph SW3.9 kmh SW 8.3 mph13.4 kmh 29.84 in1010.5 mb 0.00 in0.0 mm 0.00 in0.0 mm 0.25 in6.4 mm
03:30 PM 58.1°F14.5°C 54.9°F12.7°C 89% 3.9 mph SW6.3 kmh SW 9.8 mph15.8 kmh 29.84 in1010.5 mb 0.00 in0.0 mm 0.00 in0.0 mm 0.25 in6.4 mm
03:15 PM 57.6°F14.2°C 54.6°F12.6°C 90% 3.1 mph SW5.0 kmh SW 6.9 mph11.1 kmh 29.84 in1010.5 mb 0.00 in0.0 mm 0.00 in0.0 mm 0.25 in6.4 mm
03:00 PM 57.2°F14.0°C 54.6°F12.6°C 91% 2.4 mph SW3.9 kmh SW 6.0 mph9.7 kmh 29.83 in1010.2 mb 0.00 in0.0 mm 0.00 in0.0 mm 0.25 in6.4 mm
02:45 PM 57.2°F14.0°C 54.3°F12.4°C 90% 3.9 mph SW6.3 kmh SW 8.3 mph13.4 kmh 29.83 in1010.2 mb 0.00 in0.0 mm 0.00 in0.0 mm 0.25 in6.4 mm
02:30 PM 57.4°F14.1°C 54.2°F12.3°C 89% 3.9 mph SW6.3 kmh SW 9.2 mph14.8 kmh 29.82 in1009.8 mb 0.00 in0.0 mm 0.00 in0.0 mm 0.25 in6.4 mm
02:15 PM 58.5°F14.7°C 54.3°F12.4°C 86% 3.7 mph SW6.0 kmh SW 9.2 mph14.8 kmh 29.81 in1009.5 mb 0.00 in0.0 mm 0.00 in0.0 mm 0.25 in6.4 mm
02:00 PM 59.0°F15.0°C 54.8°F12.7°C 86% 3.6 mph SW5.8 kmh SW 9.2 mph14.8 kmh 29.81 in1009.5 mb 0.00 in0.0 mm 0.00 in0.0 mm 0.25 in6.4 mm
01:45 PM 59.5°F15.3°C 55.7°F13.2°C 87% 3.3 mph SW5.3 kmh SW 8.3 mph13.4 kmh 29.81 in1009.5 mb 0.00 in0.0 mm 0.00 in0.0 mm 0.25 in6.4 mm
01:30 PM 60.1°F15.6°C 56.2°F13.4°C 87% 3.8 mph SW6.1 kmh SW 12.1 mph19.5 kmh 29.80 in1009.1 mb 0.00 in0.0 mm 0.00 in0.0 mm 0.25 in6.4 mm
01:15 PM 59.0°F15.0°C 55.4°F13.0°C 88% 4.8 mph S7.7 kmh S 16.8 mph27.0 kmh 29.80 in1009.1 mb 0.00 in0.0 mm 0.00 in0.0 mm 0.25 in6.4 mm
01:00 PM 58.6°F14.8°C 56.0°F13.3°C 91% 4.3 mph SW6.9 kmh SW 9.8 mph15.8 kmh 29.79 in1008.8 mb 0.00 in0.0 mm 0.00 in0.0 mm 0.25 in6.4 mm
12:45 PM 58.3°F14.6°C 56.0°F13.3°C 92% 6.0 mph WSW9.7 kmh WSW 15.9 mph25.6 kmh 29.79 in1008.8 mb 0.00 in0.0 mm 0.00 in0.0 mm 0.25 in6.4 mm
12:30 PM 59.5°F15.3°C 57.2°F14.0°C 92% 5.7 mph WSW9.2 kmh WSW 14.5 mph23.3 kmh 29.79 in1008.8 mb 0.00 in0.0 mm 0.00 in0.0 mm 0.25 in6.4 mm
12:15 PM 59.4°F15.2°C 58.5°F14.7°C 97% 4.6 mph SW7.4 kmh SW 12.1 mph19.5 kmh 29.78 in1008.5 mb 0.00 in0.0 mm 0.00 in0.0 mm 0.25 in6.4 mm
12:00 PM 58.8°F14.9°C 58.5°F14.7°C 99% 3.6 mph WSW5.8 kmh WSW 12.1 mph19.5 kmh 29.77 in1008.1 mb 0.00 in0.0 mm 0.00 in0.0 mm 0.25 in6.4 mm
11:45 AM 57.9°F14.4°C 57.6°F14.2°C 99% 4.4 mph SW7.1 kmh SW 13.0 mph20.9 kmh 29.76 in1007.8 mb 0.00 in0.0 mm 0.00 in0.0 mm 0.25 in6.4 mm
11:30 AM 57.0°F13.9°C 56.7°F13.7°C 99% 4.7 mph SW7.6 kmh SW 13.6 mph21.9 kmh 29.76 in1007.8 mb 0.00 in0.0 mm 0.00 in0.0 mm 0.25 in6.4 mm
11:15 AM 56.7°F13.7°C 56.4°F13.6°C 99% 2.4 mph SW3.9 kmh SW 7.6 mph12.2 kmh 29.76 in1007.8 mb 0.01 in0.3 mm 0.00 in0.0 mm 0.25 in6.4 mm
11:00 AM 56.1°F13.4°C 55.8°F13.2°C 99% 2.8 mph WSW4.5 kmh WSW 14.5 mph23.3 kmh 29.75 in1007.5 mb 0.02 in0.5 mm 0.00 in0.0 mm 0.25 in6.4 mm
10:45 AM 55.9°F13.3°C 55.7°F13.2°C 99% 3.0 mph WSW4.8 kmh WSW 9.2 mph14.8 kmh 29.74 in1007.1 mb 0.02 in0.5 mm 0.00 in0.0 mm 0.25 in6.4 mm
10:30 AM 55.4°F13.0°C 55.1°F12.8°C 99% 2.6 mph SW4.2 kmh SW 6.9 mph11.1 kmh 29.74 in1007.1 mb 0.04 in1.0 mm 0.08 in2.0 mm 0.25 in6.4 mm
10:15 AM 55.2°F12.9°C 54.9°F12.7°C 99% 3.6 mph SW5.8 kmh SW 10.7 mph17.2 kmh 29.73 in1006.8 mb 0.02 in0.5 mm 0.04 in1.0 mm 0.24 in6.1 mm
10:00 AM 56.3°F13.5°C 56.0°F13.3°C 99% 3.5 mph SSW5.6 kmh SSW 9.8 mph15.8 kmh 29.73 in1006.8 mb 0.01 in0.3 mm 0.00 in0.0 mm 0.22 in5.6 mm
09:45 AM 58.8°F14.9°C 58.5°F14.7°C 99% 3.9 mph S6.3 kmh S 8.3 mph13.4 kmh 29.72 in1006.4 mb 0.02 in0.5 mm 0.04 in1.0 mm 0.22 in5.6 mm
09:30 AM 59.2°F15.1°C 58.9°F14.9°C 99% 6.0 mph S9.7 kmh S 13.6 mph21.9 kmh 29.71 in1006.1 mb 0.01 in0.3 mm 0.00 in0.0 mm 0.21 in5.3 mm
09:15 AM 59.2°F15.1°C 58.9°F14.9°C 99% 6.4 mph SSE10.3 kmh SSE 17.4 mph28.0 kmh 29.71 in1006.1 mb 0.02 in0.5 mm 0.00 in0.0 mm 0.21 in5.3 mm
09:00 AM 59.2°F15.1°C 58.9°F14.9°C 99% 4.8 mph SSE7.7 kmh SSE 15.9 mph25.6 kmh 29.70 in1005.8 mb 0.02 in0.5 mm 0.00 in0.0 mm 0.21 in5.3 mm
08:45 AM 59.0°F15.0°C 58.7°F14.8°C 99% 4.3 mph SE6.9 kmh SE 9.8 mph15.8 kmh 29.70 in1005.8 mb 0.02 in0.5 mm 0.00 in0.0 mm 0.20 in5.1 mm
08:30 AM 59.0°F15.0°C 58.7°F14.8°C 99% 4.3 mph SE6.9 kmh SE 15.9 mph25.6 kmh 29.70 in1005.8 mb 0.04 in1.0 mm 0.08 in2.0 mm 0.20 in5.1 mm
08:15 AM 59.0°F15.0°C 58.7°F14.8°C 99% 5.2 mph SE8.4 kmh SE 15.2 mph24.5 kmh 29.70 in1005.8 mb 0.02 in0.5 mm 0.04 in1.0 mm 0.19 in4.8 mm
08:00 AM 59.0°F15.0°C 58.7°F14.8°C 99% 6.0 mph ESE9.7 kmh ESE 13.0 mph20.9 kmh 29.69 in1005.4 mb 0.01 in0.3 mm 0.00 in0.0 mm 0.18 in4.6 mm
07:45 AM 58.8°F14.9°C 58.5°F14.7°C 99% 5.1 mph SE8.2 kmh SE 13.6 mph21.9 kmh 29.68 in1005.1 mb 0.02 in0.5 mm 0.00 in0.0 mm 0.18 in4.6 mm
07:30 AM 58.8°F14.9°C 58.5°F14.7°C 99% 3.1 mph ESE5.0 kmh ESE 9.8 mph15.8 kmh 29.69 in1005.4 mb 0.02 in0.5 mm 0.00 in0.0 mm 0.17 in4.3 mm
07:15 AM 58.8°F14.9°C 58.5°F14.7°C 99% 3.3 mph ESE5.3 kmh ESE 10.7 mph17.2 kmh 29.69 in1005.4 mb 0.04 in1.0 mm 0.00 in0.0 mm 0.17 in4.3 mm
07:00 AM 58.6°F14.8°C 58.4°F14.7°C 99% 4.2 mph SE6.8 kmh SE 13.0 mph20.9 kmh 29.68 in1005.1 mb 0.05 in1.3 mm 0.00 in0.0 mm 0.17 in4.3 mm
06:45 AM 58.5°F14.7°C 58.2°F14.6°C 99% 3.8 mph SSE6.1 kmh SSE 9.2 mph14.8 kmh 29.69 in1005.4 mb 0.05 in1.3 mm 0.00 in0.0 mm 0.15 in3.8 mm
06:30 AM 58.3°F14.6°C 58.0°F14.4°C 99% 2.6 mph SE4.2 kmh SE 11.4 mph18.3 kmh 29.69 in1005.4 mb 0.05 in1.3 mm 0.00 in0.0 mm 0.14 in3.6 mm
06:15 AM 58.1°F14.5°C 57.8°F14.3°C 99% 4.0 mph SE6.4 kmh SE 12.1 mph19.5 kmh 29.69 in1005.4 mb 0.06 in1.5 mm 0.04 in1.0 mm 0.13 in3.3 mm
06:00 AM 57.9°F14.4°C 57.6°F14.2°C 99% 3.4 mph SSE5.5 kmh SSE 8.3 mph13.4 kmh 29.69 in1005.4 mb 0.05 in1.3 mm 0.01 in0.3 mm 0.12 in3.0 mm
05:45 AM 58.1°F14.5°C 57.8°F14.3°C 99% 3.9 mph ESE6.3 kmh ESE 11.4 mph18.3 kmh 29.70 in1005.8 mb 0.04 in1.0 mm 0.00 in0.0 mm 0.11 in2.8 mm
05:30 AM 58.3°F14.6°C 58.0°F14.4°C 99% 4.5 mph ESE7.2 kmh ESE 13.6 mph21.9 kmh 29.69 in1005.4 mb 0.04 in1.0 mm 0.08 in2.0 mm 0.09 in2.3 mm
05:15 AM 58.3°F14.6°C 58.0°F14.4°C 99% 5.3 mph SSE8.5 kmh SSE 14.5 mph23.3 kmh 29.69 in1005.4 mb 0.02 in0.5 mm 0.00 in0.0 mm 0.07 in1.8 mm
05:00 AM 58.1°F14.5°C 57.8°F14.3°C 99% 4.7 mph SSE7.6 kmh SSE 11.4 mph18.3 kmh 29.68 in1005.1 mb 0.02 in0.5 mm 0.00 in0.0 mm 0.07 in1.8 mm
04:45 AM 57.9°F14.4°C 57.6°F14.2°C 99% 4.8 mph SSE7.7 kmh SSE 10.7 mph17.2 kmh 29.68 in1005.1 mb 0.02 in0.5 mm 0.04 in1.0 mm 0.07 in1.8 mm
04:30 AM 57.9°F14.4°C 57.6°F14.2°C 99% 4.9 mph SE7.9 kmh SE 12.1 mph19.5 kmh 29.70 in1005.8 mb 0.01 in0.3 mm 0.04 in1.0 mm 0.06 in1.5 mm
04:15 AM 58.1°F14.5°C 57.8°F14.3°C 99% 5.7 mph SE9.2 kmh SE 13.6 mph21.9 kmh 29.70 in1005.8 mb 0.00 in0.0 mm 0.00 in0.0 mm 0.05 in1.3 mm
04:00 AM 58.1°F14.5°C 57.8°F14.3°C 99% 4.9 mph E7.9 kmh E 11.4 mph18.3 kmh 29.70 in1005.8 mb 0.00 in0.0 mm 0.00 in0.0 mm 0.05 in1.3 mm
03:45 AM 58.3°F14.6°C 58.0°F14.4°C 99% 5.3 mph SE8.5 kmh SE 14.5 mph23.3 kmh 29.70 in1005.8 mb 0.02 in0.5 mm 0.00 in0.0 mm 0.05 in1.3 mm
03:30 AM 58.1°F14.5°C 57.8°F14.3°C 99% 6.8 mph SE10.9 kmh SE 19.0 mph30.6 kmh 29.70 in1005.8 mb 0.02 in0.5 mm 0.00 in0.0 mm 0.05 in1.3 mm
03:15 AM 58.1°F14.5°C 57.8°F14.3°C 99% 6.3 mph SE10.1 kmh SE 13.6 mph21.9 kmh 29.70 in1005.8 mb 0.02 in0.5 mm 0.00 in0.0 mm 0.05 in1.3 mm
03:00 AM 58.3°F14.6°C 58.0°F14.4°C 99% 5.8 mph SE9.3 kmh SE 15.2 mph24.5 kmh 29.71 in1006.1 mb 0.02 in0.5 mm 0.03 in0.8 mm 0.05 in1.3 mm
02:45 AM 58.5°F14.7°C 58.2°F14.6°C 99% 6.7 mph SSE10.8 kmh SSE 18.3 mph29.5 kmh 29.72 in1006.4 mb 0.00 in0.0 mm 0.00 in0.0 mm 0.02 in0.5 mm
02:30 AM 58.3°F14.6°C 58.0°F14.4°C 99% 6.6 mph SE10.6 kmh SE 12.1 mph19.5 kmh 29.72 in1006.4 mb 0.00 in0.0 mm 0.00 in0.0 mm 0.02 in0.5 mm
02:15 AM 58.1°F14.5°C 57.8°F14.3°C 99% 7.0 mph SSE11.3 kmh SSE 15.2 mph24.5 kmh 29.73 in1006.8 mb 0.00 in0.0 mm 0.00 in0.0 mm 0.02 in0.5 mm
02:00 AM 57.9°F14.4°C 57.6°F14.2°C 99% 5.9 mph SSE9.5 kmh SSE 15.2 mph24.5 kmh 29.73 in1006.8 mb 0.00 in0.0 mm 0.00 in0.0 mm 0.02 in0.5 mm
01:45 AM 58.3°F14.6°C 58.0°F14.4°C 99% 5.5 mph SE8.9 kmh SE 16.8 mph27.0 kmh 29.73 in1006.8 mb 0.00 in0.0 mm 0.00 in0.0 mm 0.02 in0.5 mm
01:30 AM 58.3°F14.6°C 58.0°F14.4°C 99% 5.7 mph SE9.2 kmh SE 12.1 mph19.5 kmh 29.73 in1006.8 mb 0.01 in0.3 mm 0.00 in0.0 mm 0.02 in0.5 mm
01:15 AM 58.5°F14.7°C 58.2°F14.6°C 99% 5.6 mph SE9.0 kmh SE 13.0 mph20.9 kmh 29.73 in1006.8 mb 0.01 in0.3 mm 0.00 in0.0 mm 0.02 in0.5 mm
01:00 AM 58.3°F14.6°C 58.0°F14.4°C 99% 5.4 mph SSE8.7 kmh SSE 14.5 mph23.3 kmh 29.74 in1007.1 mb 0.01 in0.3 mm 0.00 in0.0 mm 0.02 in0.5 mm
12:45 AM 58.5°F14.7°C 58.2°F14.6°C 99% 6.3 mph SSE10.1 kmh SSE 15.2 mph24.5 kmh 29.74 in1007.1 mb 0.01 in0.3 mm 0.00 in0.0 mm 0.02 in0.5 mm
12:30 AM 58.6°F14.8°C 58.4°F14.7°C 99% 6.9 mph SSE11.1 kmh SSE 16.8 mph27.0 kmh 29.74 in1007.1 mb 0.01 in0.3 mm 0.00 in0.0 mm 0.01 in0.3 mm
12:15 AM 58.8°F14.9°C 58.5°F14.7°C 99% 8.3 mph SSE13.4 kmh SSE 17.4 mph28.0 kmh 29.74 in1007.1 mb 0.01 in0.3 mm 0.00 in0.0 mm 0.01 in0.3 mm
12:00 AM 59.0°F15.0°C 58.7°F14.8°C 99% 7.7 mph S12.4 kmh S 18.3 mph29.5 kmh 29.74 in1007.1 mb 0.01 in0.3 mm 0.00 in0.0 mm 0.01 in0.3 mm